Time;durP1;ratioP1;P1;durP2;ratioP2;P2;SDS_P1;SDS_P2;PMS_P1;PMS_P2;Temp;Humidity;BMP_temperature;BMP_pressure;BME280_temperature;BME280_humidity;BME280_pressure;Samples;Min_cycle;Max_cycle;Signal;HPM_P1;HPM_P2
2022/07/29 00:01:02;;;;;;;6.03;2.85;;;;;;;16.07;57.65;101253.06;5056377;28;20041;-60
2022/07/29 00:03:30;;;;;;;10.98;3.22;;;;;;;16.06;57.89;101258.50;5055008;28;20409;-60
2022/07/29 00:05:57;;;;;;;5.43;2.58;;;;;;;16.01;57.98;101260.63;5041943;28;20179;-56
2022/07/29 00:08:24;;;;;;;8.20;3.25;;;;;;;16.00;57.91;101259.78;5057421;28;20063;-60
2022/07/29 00:10:51;;;;;;;12.63;3.63;;;;;;;15.98;58.72;101260.84;5048738;28;20057;-58
2022/07/29 00:13:18;;;;;;;4.85;2.72;;;;;;;15.94;58.57;101265.56;5059278;28;20144;-60
2022/07/29 00:15:58;;;;;;;7.88;2.80;;;;;;;15.89;58.97;101267.66;5046079;28;20049;-61
2022/07/29 00:18:31;;;;;;;7.40;3.15;;;;;;;15.84;59.74;101262.69;5049394;28;20072;-60
2022/07/29 00:20:59;;;;;;;6.82;3.38;;;;;;;15.80;59.95;101252.38;5053375;28;20067;-62
2022/07/29 00:23:26;;;;;;;9.70;2.90;;;;;;;15.78;59.88;101256.97;5051861;28;20263;-61
2022/07/29 00:25:53;;;;;;;9.73;2.80;;;;;;;15.76;59.83;101253.56;5048288;28;20052;-61
2022/07/29 00:28:20;;;;;;;7.18;2.97;;;;;;;15.74;60.08;101255.47;5051638;28;20056;-62
2022/07/29 00:30:47;;;;;;;13.63;3.80;;;;;;;15.72;60.51;101254.75;5055708;28;20052;-62
2022/07/29 00:33:14;;;;;;;12.00;3.33;;;;;;;15.70;60.34;101245.06;5047035;28;20060;-60
2022/07/29 00:35:45;;;;;;;6.22;3.00;;;;;;;15.67;61.36;101242.66;5051426;28;20045;-62
2022/07/29 00:38:13;;;;;;;8.15;3.25;;;;;;;15.64;62.05;101244.66;5056098;28;20619;-61
2022/07/29 00:40:41;;;;;;;8.55;3.50;;;;;;;15.62;62.08;101244.72;5049256;28;20045;-61
2022/07/29 00:43:12;;;;;;;9.00;3.35;;;;;;;15.60;61.92;101243.16;5057814;28;20053;-61
2022/07/29 00:45:39;;;;;;;4.50;2.90;;;;;;;15.56;62.46;101242.50;5054172;28;20059;-58
2022/07/29 00:48:08;;;;;;;6.53;2.90;;;;;;;15.53;62.58;101241.88;5057285;28;20394;-59
2022/07/29 00:50:36;;;;;;;9.27;3.67;;;;;;;15.50;62.24;101242.09;5055785;28;20048;-60
2022/07/29 00:53:05;;;;;;;10.98;3.70;;;;;;;15.49;63.01;101246.56;5060706;28;20048;-61
2022/07/29 00:55:32;;;;;;;9.70;3.80;;;;;;;15.48;62.66;101244.00;5057633;28;20063;-61
2022/07/29 00:57:59;;;;;;;8.35;3.38;;;;;;;15.45;62.50;101237.13;5051424;28;20420;-58
2022/07/29 01:00:28;;;;;;;10.18;3.03;;;;;;;15.44;63.11;101233.63;5061917;28;20491;-58
2022/07/29 01:02:55;;;;;;;8.63;3.80;;;;;;;15.44;63.28;101232.75;5056047;28;20063;-56
2022/07/29 01:05:27;;;;;;;9.65;3.70;;;;;;;15.42;63.10;101234.66;5053244;28;20535;-60
2022/07/29 01:08:15;;;;;;;7.05;3.25;;;;;;;15.42;63.26;101234.66;5058782;28;20059;-59
2022/07/29 01:10:44;;;;;;;7.88;3.50;;;;;;;15.40;63.22;101228.59;5050092;28;20045;-62
2022/07/29 01:13:11;;;;;;;7.72;3.45;;;;;;;15.39;62.97;101230.41;5059997;28;20048;-59
2022/07/29 01:15:44;;;;;;;10.27;4.13;;;;;;;15.38;63.01;101226.06;5052111;28;20060;-61
2022/07/29 01:18:37;;;;;;;12.60;3.83;;;;;;;15.39;63.09;101226.91;5051018;28;20073;-61
2022/07/29 01:21:25;;;;;;;7.45;3.35;;;;;;;15.38;63.16;101222.56;5049700;28;20052;-60
2022/07/29 01:23:52;;;;;;;8.88;3.38;;;;;;;15.36;63.16;101221.84;5045819;28;20064;-59
2022/07/29 01:26:35;;;;;;;5.00;3.10;;;;;;;15.35;63.48;101217.47;5058192;28;20526;-59
2022/07/29 01:29:32;;;;;;;5.75;2.90;;;;;;;15.33;63.75;101209.63;5054518;28;20056;-60
2022/07/29 01:32:09;;;;;;;6.72;3.05;;;;;;;15.31;63.89;101205.38;5050441;28;20057;-58
2022/07/29 01:35:05;;;;;;;5.72;2.90;;;;;;;15.29;64.26;101197.53;5056045;28;20448;-60
2022/07/29 01:37:52;;;;;;;9.95;3.03;;;;;;;15.27;64.23;101198.59;5037125;28;20055;-61
2022/07/29 01:40:22;;;;;;;5.18;2.90;;;;;;;15.26;64.38;101183.63;5056991;28;20060;-61
2022/07/29 01:42:52;;;;;;;11.00;3.50;;;;;;;15.22;64.89;101182.13;5049404;28;20391;-61
2022/07/29 01:45:31;;;;;;;7.57;3.63;;;;;;;15.18;65.18;101173.56;5054936;28;20063;-60
2022/07/29 01:48:17;;;;;;;7.28;2.92;;;;;;;15.13;65.91;101160.63;5044484;28;20049;-61
2022/07/29 01:50:48;;;;;;;7.78;3.60;;;;;;;15.08;65.93;101149.47;5062066;28;20052;-60
2022/07/29 01:53:29;;;;;;;7.25;3.47;;;;;;;15.05;66.22;101144.41;5055225;28;20516;-58
2022/07/29 01:56:06;;;;;;;4.30;3.15;;;;;;;15.03;66.57;101142.78;5042873;28;20445;-60
2022/07/29 01:58:35;;;;;;;5.63;2.90;;;;;;;15.01;66.47;101145.56;5054075;28;20440;-63
2022/07/29 02:01:02;;;;;;;7.18;3.85;;;;;;;14.99;66.72;101142.16;5052310;28;20049;-61
2022/07/29 02:03:31;;;;;;;11.23;3.72;;;;;;;14.94;67.01;101142.47;5056415;28;20048;-60
2022/07/29 02:06:00;;;;;;;9.07;3.53;;;;;;;14.93;66.87;101137.28;5049975;28;20052;-60
2022/07/29 02:08:28;;;;;;;7.57;3.17;;;;;;;14.92;67.66;101140.91;5058858;28;20063;-61
2022/07/29 02:10:55;;;;;;;7.55;2.70;;;;;;;14.87;68.06;101143.00;5052448;28;20053;-61
2022/07/29 02:13:23;;;;;;;9.65;3.00;;;;;;;14.84;67.33;101129.97;5045664;28;20597;-60
2022/07/29 02:15:51;;;;;;;6.93;2.90;;;;;;;14.84;67.23;101140.56;5053279;28;20049;-61
2022/07/29 02:18:20;;;;;;;7.43;2.65;;;;;;;14.84;67.40;101143.22;5055071;28;20106;-59
2022/07/29 02:20:49;;;;;;;7.28;3.10;;;;;;;14.83;67.35;101149.47;5055187;28;20056;-60
2022/07/29 02:23:22;;;;;;;5.75;3.15;;;;;;;14.83;67.30;101142.38;5054218;28;20504;-61
2022/07/29 02:25:53;;;;;;;6.13;3.10;;;;;;;14.83;67.17;101152.97;5053287;28;20064;-63
2022/07/29 02:28:22;;;;;;;10.95;3.00;;;;;;;14.84;67.67;101144.06;5052028;28;20069;-59
2022/07/29 02:30:51;;;;;;;7.78;2.58;;;;;;;14.84;67.81;101153.81;5054328;28;20132;-60
2022/07/29 02:33:19;;;;;;;9.90;3.80;;;;;;;14.83;68.24;101149.47;5053233;28;20055;-60
2022/07/29 02:35:47;;;;;;;4.47;2.53;;;;;;;14.80;67.88;101152.31;5058329;28;20057;-59
2022/07/29 02:41:07;;;;;;;5.55;2.80;;;;;;;14.79;67.76;101148.84;5065934;22;20538;-56
2022/07/29 02:43:35;;;;;;;9.15;3.30;;;;;;;14.82;67.83;101145.13;5039059;28;20069;-55
2022/07/29 02:46:05;;;;;;;9.55;3.40;;;;;;;14.83;68.05;101154.78;5033874;28;20065;-56
2022/07/29 02:48:45;;;;;;;10.00;3.00;;;;;;;14.84;67.56;101157.31;5033336;28;20053;-55
2022/07/29 02:51:19;;;;;;;9.98;3.15;;;;;;;14.84;67.84;101153.81;5049977;28;20382;-55
2022/07/29 02:54:07;;;;;;;8.18;2.88;;;;;;;14.83;67.84;101158.28;5033246;28;20063;-54
2022/07/29 02:56:36;;;;;;;8.30;2.80;;;;;;;14.84;67.79;101157.31;5036582;28;20056;-55
2022/07/29 02:59:08;;;;;;;8.52;3.58;;;;;;;14.84;67.92;101157.31;5044740;28;20417;-52
2022/07/29 03:01:35;;;;;;;5.18;2.70;;;;;;;14.84;68.12;101149.38;5031651;28;20060;-56
2022/07/29 03:04:04;;;;;;;9.00;3.15;;;;;;;14.84;67.55;101151.16;5034528;28;20080;-55
2022/07/29 03:06:34;;;;;;;7.20;3.10;;;;;;;14.83;67.56;101152.97;5044678;28;20425;-53
2022/07/29 03:09:06;;;;;;;7.63;3.28;;;;;;;14.85;67.86;101150.22;5052848;28;20050;-53
2022/07/29 03:11:40;;;;;;;8.00;3.42;;;;;;;14.86;67.69;101152.78;5032715;28;20068;-58
2022/07/29 03:14:18;;;;;;;7.00;2.83;;;;;;;14.86;67.46;101158.06;5046830;28;20056;-53
2022/07/29 03:16:46;;;;;;;6.63;2.80;;;;;;;14.87;67.27;101150.97;5033135;28;20073;-57
2022/07/29 03:19:14;;;;;;;7.45;2.80;;;;;;;14.89;67.55;101157.00;5033276;28;20072;-55
2022/07/29 03:21:41;;;;;;;5.07;2.33;;;;;;;14.88;67.44;101150.00;5036660;28;20049;-54
2022/07/29 03:24:08;;;;;;;8.80;2.97;;;;;;;14.90;67.30;101145.44;5036893;28;20127;-54
2022/07/29 03:26:37;;;;;;;9.52;2.80;;;;;;;14.92;67.14;101144.38;5029618;28;20060;-57
2022/07/29 03:29:04;;;;;;;8.45;3.45;;;;;;;14.92;67.67;101144.38;5038478;28;20064;-54
2022/07/29 03:31:31;;;;;;;6.13;3.17;;;;;;;14.94;67.51;101138.97;5032128;28;20406;-57
2022/07/29 03:33:59;;;;;;;8.35;3.38;;;;;;;14.96;67.53;101142.38;5028560;28;20060;-58
2022/07/29 03:36:26;;;;;;;8.57;2.58;;;;;;;14.97;68.19;101138.78;5031424;28;20452;-54
2022/07/29 03:38:54;;;;;;;6.97;2.78;;;;;;;14.96;67.79;101144.19;5035683;28;20054;-58
2022/07/29 03:41:22;;;;;;;9.32;3.65;;;;;;;14.94;67.46;101139.81;5013453;28;20129;-54
2022/07/29 03:43:49;;;;;;;11.65;3.15;;;;;;;14.97;67.51;101136.13;5037209;28;20075;-60
2022/07/29 03:46:17;;;;;;;10.18;3.80;;;;;;;14.99;67.41;101128.91;5028555;28;20057;-59
2022/07/29 03:48:46;;;;;;;7.15;2.90;;;;;;;15.01;67.40;101129.66;5026469;28;20369;-55
2022/07/29 03:51:14;;;;;;;7.78;2.88;;;;;;;15.01;67.72;101119.03;5030544;28;20053;-56
2022/07/29 03:53:41;;;;;;;7.43;2.58;;;;;;;15.02;67.53;101125.19;5052335;28;20080;-52
2022/07/29 03:56:10;;;;;;;10.55;2.75;;;;;;;15.03;67.33;101119.78;5054366;28;20056;-55
2022/07/29 03:58:37;;;;;;;9.40;3.05;;;;;;;15.04;67.16;101121.50;5062117;28;20053;-56
2022/07/29 04:01:04;;;;;;;9.05;3.03;;;;;;;15.07;67.07;101115.09;5067195;28;20060;-56
2022/07/29 04:03:32;;;;;;;7.75;2.75;;;;;;;15.09;67.16;101127.31;5047961;28;20655;-58
2022/07/29 04:06:05;;;;;;;6.93;2.78;;;;;;;15.13;66.88;101125.28;5042675;28;20064;-53
2022/07/29 04:08:33;;;;;;;9.43;2.63;;;;;;;15.15;67.00;101126.03;5036471;28;20570;-57
2022/07/29 04:11:01;;;;;;;10.95;2.42;;;;;;;15.18;66.64;101136.44;5037457;28;20053;-56
2022/07/29 04:13:28;;;;;;;6.13;2.60;;;;;;;15.26;66.37;101135.88;5033714;28;20049;-58
2022/07/29 04:15:55;;;;;;;8.38;3.15;;;;;;;15.28;66.17;101132.19;5037325;28;20060;-54
2022/07/29 04:18:23;;;;;;;6.53;3.03;;;;;;;15.33;66.42;101135.34;5031689;28;20045;-58
2022/07/29 04:20:50;;;;;;;5.78;2.55;;;;;;;15.38;66.18;101145.63;5031278;28;20049;-53
2022/07/29 04:23:17;;;;;;;8.57;3.13;;;;;;;15.40;65.61;101146.34;5034063;28;20056;-55
2022/07/29 04:25:44;;;;;;;8.40;2.78;;;;;;;15.45;65.67;101144.25;5030808;28;20673;-53
2022/07/29 04:28:11;;;;;;;6.55;2.40;;;;;;;15.48;65.58;101143.16;5032799;28;20041;-51
2022/07/29 04:30:38;;;;;;;7.15;3.05;;;;;;;15.50;65.65;101139.47;5033198;28;20138;-56
2022/07/29 04:33:06;;;;;;;12.10;2.67;;;;;;;15.52;65.60;101140.19;5033574;28;20056;-56
2022/07/29 04:35:36;;;;;;;4.50;2.28;;;;;;;15.59;65.34;101141.47;5031571;28;20042;-52
2022/07/29 04:38:05;;;;;;;6.22;2.65;;;;;;;15.64;64.92;101143.81;5032173;28;20049;-58
2022/07/29 04:40:33;;;;;;;7.75;2.60;;;;;;;15.70;64.74;101138.06;5032188;28;20049;-54
2022/07/29 04:43:04;;;;;;;7.90;2.83;;;;;;;15.74;64.52;101133.38;5033432;28;20046;-57
2022/07/29 04:45:32;;;;;;;6.95;2.72;;;;;;;15.82;64.61;101138.97;5031243;28;20065;-56
2022/07/29 04:47:59;;;;;;;6.88;2.60;;;;;;;15.88;64.09;101142.03;5038423;28;20420;-55
2022/07/29 04:50:26;;;;;;;8.68;2.85;;;;;;;15.91;64.01;101143.63;5034391;28;20057;-58
2022/07/29 04:52:53;;;;;;;9.95;3.33;;;;;;;15.98;63.76;101142.19;5039415;28;20136;-54
2022/07/29 04:55:20;;;;;;;8.38;2.97;;;;;;;16.05;63.86;101146.09;5035955;28;20049;-59
2022/07/29 04:57:47;;;;;;;9.40;2.53;;;;;;;16.14;63.03;101142.78;5034503;28;20049;-56
2022/07/29 05:00:14;;;;;;;6.55;2.70;;;;;;;16.17;63.09;101142.56;5037820;28;20045;-59
2022/07/29 05:02:42;;;;;;;10.25;2.90;;;;;;;16.25;62.73;101147.28;5038981;28;20049;-56
2022/07/29 05:05:09;;;;;;;6.72;2.70;;;;;;;16.34;62.47;101145.75;5035263;28;20053;-58
2022/07/29 05:07:36;;;;;;;8.00;2.83;;;;;;;16.42;62.08;101136.25;5040474;28;20060;-53
2022/07/29 05:10:03;;;;;;;11.18;2.63;;;;;;;16.52;62.11;101141.69;5035727;28;20061;-58
2022/07/29 05:12:30;;;;;;;6.47;2.92;;;;;;;16.63;61.52;101148.88;5042708;28;20056;-55
2022/07/29 05:14:58;;;;;;;8.60;2.72;;;;;;;16.68;61.39;101144.06;5036093;28;20057;-55
2022/07/29 05:17:25;;;;;;;8.40;2.92;;;;;;;16.76;61.02;101147.00;5033022;28;20057;-57
2022/07/29 05:19:52;;;;;;;9.77;2.92;;;;;;;16.83;60.95;101147.38;5040934;28;20243;-55
2022/07/29 05:22:19;;;;;;;8.23;2.42;;;;;;;16.89;60.42;101139.78;5033688;28;20053;-52
2022/07/29 05:24:46;;;;;;;4.57;2.35;;;;;;;16.93;60.25;101143.91;5013491;28;20049;-58
2022/07/29 05:27:13;;;;;;;6.47;2.60;;;;;;;16.96;60.17;101143.66;5040252;28;20524;-54
2022/07/29 05:29:41;;;;;;;6.85;2.70;;;;;;;16.99;59.80;101134.59;5034447;28;20065;-55
2022/07/29 05:32:12;;;;;;;8.63;2.92;;;;;;;16.97;59.59;101131.19;5056507;28;20108;-56
2022/07/29 05:34:40;;;;;;;8.65;2.80;;;;;;;17.02;59.75;101137.03;5034150;28;20058;-58
2022/07/29 05:37:20;;;;;;;7.68;2.70;;;;;;;17.12;59.30;101124.69;5033893;28;20739;-52
2022/07/29 05:39:47;;;;;;;5.80;3.38;;;;;;;17.17;59.25;101135.81;5032762;28;20052;-55
2022/07/29 05:42:23;;;;;;;;;;;;;;;17.25;59.01;101129.91;5037019;28;20137;-54
2022/07/29 05:44:50;;;;;;;11.25;3.47;;;;;;;17.31;58.53;101133.88;5033424;28;19987;-58
2022/07/29 05:47:17;;;;;;;4.93;2.70;;;;;;;17.36;58.32;101129.88;5034767;28;20056;-55
2022/07/29 05:49:45;;;;;;;4.50;2.10;;;;;;;17.46;58.32;101119.34;5033688;28;20067;-54
2022/07/29 05:52:13;;;;;;;5.50;2.05;;;;;;;17.55;58.04;101131.91;5034756;28;20057;-50
2022/07/29 05:54:40;;;;;;;8.60;2.75;;;;;;;17.60;57.93;101134.22;5038143;28;20064;-52
2022/07/29 05:57:07;;;;;;;12.45;3.50;;;;;;;17.62;57.68;101135.78;5028685;28;20523;-58
2022/07/29 05:59:37;;;;;;;8.07;2.70;;;;;;;17.78;57.37;101131.91;5041078;28;20428;-62
2022/07/29 06:02:07;;;;;;;5.68;2.30;;;;;;;17.90;57.21;101130.94;5035626;28;20053;-56
2022/07/29 06:04:34;;;;;;;6.00;2.58;;;;;;;18.02;57.00;101129.94;5034369;28;20103;-59
2022/07/29 06:07:02;;;;;;;7.32;2.28;;;;;;;18.20;56.51;101136.41;5035604;28;20068;-58
2022/07/29 06:09:29;;;;;;;5.45;2.40;;;;;;;18.44;55.69;101136.16;5036379;28;20523;-58
2022/07/29 06:11:57;;;;;;;7.85;2.50;;;;;;;18.61;55.39;101142.75;5038260;28;20063;-58
2022/07/29 06:14:25;;;;;;;11.13;3.00;;;;;;;18.78;54.99;101141.34;5037572;28;20061;-55
2022/07/29 06:16:52;;;;;;;6.97;2.30;;;;;;;18.91;54.81;101144.66;5036953;28;20572;-57
2022/07/29 06:19:20;;;;;;;5.00;2.60;;;;;;;19.03;54.68;101133.91;5038916;28;20060;-55
2022/07/29 06:21:47;;;;;;;5.30;2.40;;;;;;;19.13;54.12;101130.28;5022081;28;20367;-52
2022/07/29 06:24:15;;;;;;;10.38;2.97;;;;;;;19.28;53.67;101133.47;5041472;28;20064;-59
2022/07/29 06:26:43;;;;;;;7.85;2.80;;;;;;;19.42;53.59;101125.09;5031565;28;20513;-54
2022/07/29 06:29:11;;;;;;;6.10;2.35;;;;;;;19.52;53.48;101125.13;5036901;28;20044;-56
2022/07/29 06:31:39;;;;;;;5.20;2.45;;;;;;;19.68;53.04;101122.81;5031444;28;20053;-55
2022/07/29 06:34:06;;;;;;;4.50;2.30;;;;;;;19.71;52.92;101117.16;5039774;28;20056;-56
2022/07/29 06:36:37;;;;;;;8.15;2.47;;;;;;;19.78;52.61;101124.66;5032807;28;20045;-51
2022/07/29 06:39:08;;;;;;;7.40;2.88;;;;;;;19.86;52.31;101127.50;5037541;28;20048;-59
2022/07/29 06:41:37;;;;;;;10.38;2.58;;;;;;;19.91;51.87;101126.09;5032469;28;20075;-57
2022/07/29 06:44:04;;;;;;;6.35;2.55;;;;;;;20.01;51.84;101128.75;5037385;28;20046;-56
2022/07/29 06:46:32;;;;;;;7.65;2.50;;;;;;;20.08;51.78;101132.53;5032195;28;20505;-56
2022/07/29 06:49:01;;;;;;;12.65;2.40;;;;;;;20.18;51.35;101125.41;5029593;28;20058;-51
2022/07/29 06:51:28;;;;;;;5.72;2.80;;;;;;;20.27;51.15;101131.72;5033298;28;20405;-55
2022/07/29 06:53:57;;;;;;;3.83;1.92;;;;;;;20.32;51.08;101132.16;5037810;28;20068;-54
2022/07/29 06:56:31;;;;;;;5.28;2.10;;;;;;;20.34;50.93;101129.31;5035882;28;20047;-56
2022/07/29 06:59:07;;;;;;;7.53;2.22;;;;;;;20.33;50.80;101127.66;5039038;28;20049;-54
2022/07/29 07:01:36;;;;;;;5.88;2.42;;;;;;;20.38;50.83;101133.41;5036759;28;20053;-57
2022/07/29 07:04:03;;;;;;;7.78;2.35;;;;;;;20.40;50.62;101139.47;5031743;28;20061;-54
2022/07/29 07:06:31;;;;;;;5.88;2.45;;;;;;;20.47;50.34;101148.59;5036398;28;20619;-55
2022/07/29 07:08:58;;;;;;;7.72;2.35;;;;;;;20.53;50.11;101148.06;5046152;28;20080;-53
2022/07/29 07:11:25;;;;;;;6.28;2.22;;;;;;;20.61;49.73;101148.19;5052713;28;20057;-57
2022/07/29 07:13:52;;;;;;;6.88;2.55;;;;;;;20.70;49.21;101152.69;5031796;28;20049;-55
2022/07/29 07:16:19;;;;;;;7.63;2.55;;;;;;;20.77;49.01;101149.47;5036019;28;20071;-54
2022/07/29 07:18:46;;;;;;;7.50;2.95;;;;;;;20.84;48.81;101155.91;5030319;28;20059;-54
2022/07/29 07:21:14;;;;;;;7.88;2.70;;;;;;;20.92;49.11;101154.19;5033115;28;20140;-54
2022/07/29 07:23:46;;;;;;;5.15;2.50;;;;;;;21.08;48.13;101150.94;5048974;28;20060;-53
2022/07/29 07:26:13;;;;;;;8.35;2.20;;;;;;;21.26;48.05;101144.81;5029116;28;20532;-57
2022/07/29 07:28:40;;;;;;;6.70;2.67;;;;;;;21.39;47.75;101145.31;5037525;28;20056;-55
2022/07/29 07:31:08;;;;;;;6.90;2.30;;;;;;;21.56;47.31;101144.53;5035874;28;20431;-56
2022/07/29 07:33:35;;;;;;;8.70;2.42;;;;;;;21.73;47.23;101137.53;5051538;28;20128;-53
2022/07/29 07:36:02;;;;;;;9.65;2.40;;;;;;;21.84;46.44;101144.53;5036962;28;20067;-59
2022/07/29 07:38:29;;;;;;;11.88;2.35;;;;;;;21.93;46.49;101133.75;5054619;28;20052;-51
2022/07/29 07:40:56;;;;;;;15.00;2.63;;;;;;;22.00;46.32;101137.50;5030276;28;20502;-53
2022/07/29 07:43:23;;;;;;;5.90;2.10;;;;;;;22.15;45.74;101137.00;5042182;28;20053;-51
2022/07/29 07:45:51;;;;;;;8.27;2.00;;;;;;;22.35;45.33;101135.84;5038555;28;20060;-53
2022/07/29 07:48:18;;;;;;;7.13;2.30;;;;;;;22.46;44.91;101138.28;5038324;28;20061;-56
2022/07/29 07:50:45;;;;;;;6.00;1.60;;;;;;;22.66;44.53;101138.97;5035241;28;20077;-55
2022/07/29 07:53:12;;;;;;;7.43;1.98;;;;;;;22.70;44.05;101129.59;5045017;28;20049;-55
2022/07/29 07:55:41;;;;;;;4.68;2.17;;;;;;;22.87;43.67;101127.00;5037402;28;20352;-54
2022/07/29 07:58:28;;;;;;;9.95;1.75;;;;;;;23.14;43.75;101134.91;5036539;28;20064;-52
2022/07/29 08:00:55;;;;;;;5.32;1.85;;;;;;;23.27;42.86;101129.09;5042016;28;20402;-53
2022/07/29 08:03:22;;;;;;;7.15;2.13;;;;;;;23.39;42.24;101127.00;5045461;28;20526;-52
2022/07/29 08:05:51;;;;;;;4.15;1.70;;;;;;;23.60;42.31;101127.41;5039441;28;20049;-56
2022/07/29 08:08:18;;;;;;;5.20;1.90;;;;;;;23.81;41.82;101118.91;5038963;28;20079;-54
2022/07/29 08:10:52;;;;;;;5.30;1.95;;;;;;;23.99;40.78;101126.84;5040927;28;20068;-57
2022/07/29 08:13:20;;;;;;;6.35;2.47;;;;;;;24.06;40.52;101127.88;5039920;28;20053;-58
2022/07/29 08:15:57;;;;;;;4.30;1.65;;;;;;;24.12;40.02;101129.91;5028694;28;20493;-54
2022/07/29 08:18:24;;;;;;;5.47;1.90;;;;;;;24.26;39.78;101120.31;5040434;28;20053;-54
2022/07/29 08:20:52;;;;;;;6.07;1.73;;;;;;;24.34;39.61;101114.94;5041452;28;20621;-57
2022/07/29 08:23:19;;;;;;;5.40;1.80;;;;;;;24.44;39.47;101122.88;5058642;28;20053;-54
2022/07/29 08:25:46;;;;;;;5.38;1.95;;;;;;;24.58;39.39;101124.03;5015990;28;20049;-56
2022/07/29 08:28:17;;;;;;;10.52;2.38;;;;;;;24.67;38.30;101120.34;5045663;28;20471;-56
2022/07/29 08:30:44;;;;;;;5.95;1.90;;;;;;;24.70;38.28;101123.53;5036696;28;20145;-59
2022/07/29 08:33:11;;;;;;;7.55;1.95;;;;;;;24.83;38.31;101124.88;5039823;28;20045;-57
2022/07/29 08:35:38;;;;;;;10.15;2.60;;;;;;;24.93;37.57;101118.25;5035529;28;20053;-57
2022/07/29 08:38:05;;;;;;;10.23;1.83;;;;;;;24.91;37.09;101120.31;5046183;28;20057;-55
2022/07/29 08:40:33;;;;;;;8.48;1.48;;;;;;;24.87;37.10;101120.81;5035875;28;20413;-57
2022/07/29 08:43:09;;;;;;;10.75;1.83;;;;;;;25.05;37.47;101118.75;5074031;22;20492;-56
2022/07/29 08:45:43;;;;;;;7.03;1.70;;;;;;;25.05;37.32;101107.13;5036737;28;20053;-55
2022/07/29 08:48:16;;;;;;;6.95;1.77;;;;;;;25.10;36.87;101111.03;5052473;28;20052;-59
2022/07/29 08:50:44;;;;;;;3.65;1.85;;;;;;;25.23;36.80;101108.63;5032799;28;20057;-59
2022/07/29 08:53:16;;;;;;;4.43;1.63;;;;;;;25.42;36.62;101115.44;5038098;28;20112;-58
2022/07/29 08:55:49;;;;;;;5.38;1.92;;;;;;;25.55;36.47;101109.47;5034245;28;20045;-55
2022/07/29 08:58:17;;;;;;;5.70;1.80;;;;;;;25.56;36.11;101107.63;5037211;28;20062;-56
2022/07/29 09:00:51;;;;;;;4.40;1.92;;;;;;;25.55;36.00;101108.66;5036983;28;20065;-58
2022/07/29 09:03:20;;;;;;;8.25;2.40;;;;;;;25.46;36.21;101115.94;5040526;28;20055;-57
2022/07/29 09:05:48;;;;;;;6.28;2.42;;;;;;;25.30;35.94;101110.59;5032917;28;20053;-59
2022/07/29 09:08:16;;;;;;;4.47;1.83;;;;;;;25.23;36.09;101115.88;5042062;28;20060;-59
2022/07/29 09:10:44;;;;;;;5.43;1.80;;;;;;;25.12;36.06;101117.06;5037475;28;20060;-60
2022/07/29 09:13:11;;;;;;;6.32;2.03;;;;;;;25.14;36.17;101115.06;5034319;28;20440;-59
2022/07/29 09:15:38;;;;;;;5.10;1.70;;;;;;;25.28;35.93;101113.47;5038825;28;20540;-58
2022/07/29 09:18:05;;;;;;;3.25;1.65;;;;;;;25.50;35.91;101111.88;5029796;28;20056;-59
2022/07/29 09:23:19;;;;;;;6.43;1.85;;;;;;;26.11;35.09;101109.31;5034256;28;20061;-60
2022/07/29 09:25:50;;;;;;;5.00;1.77;;;;;;;26.38;34.59;101110.63;5032914;28;20054;-60
2022/07/29 09:28:17;;;;;;;7.03;2.13;;;;;;;26.66;34.94;101108.22;5042967;28;20045;-59
2022/07/29 09:30:51;;;;;;;6.28;1.63;;;;;;;26.92;34.56;101102.34;5033242;28;20057;-56
2022/07/29 09:33:20;;;;;;;2.95;1.60;;;;;;;26.99;33.53;101108.72;5028932;28;20054;-59
2022/07/29 09:36:06;;;;;;;7.55;2.40;;;;;;;27.08;32.63;101113.00;5036773;28;20144;-59
2022/07/29 09:38:35;;;;;;;10.65;1.70;;;;;;;27.13;31.95;101107.91;5031722;28;20048;-60
2022/07/29 09:41:04;;;;;;;6.05;2.05;;;;;;;27.16;31.82;101106.69;5036032;28;20053;-59
2022/07/29 09:43:33;;;;;;;6.03;1.85;;;;;;;27.12;31.97;101111.63;5034987;28;20099;-57
2022/07/29 09:46:11;;;;;;;6.18;1.80;;;;;;;27.04;31.78;101100.03;5037333;28;20053;-59
2022/07/29 09:48:38;;;;;;;7.43;2.28;;;;;;;27.02;32.04;101098.38;5033890;28;20410;-60
2022/07/29 09:51:16;;;;;;;8.07;2.45;;;;;;;26.92;31.97;101092.38;5033916;28;20065;-59
2022/07/29 09:53:48;;;;;;;5.65;1.88;;;;;;;26.89;32.06;101089.25;5033983;28;20128;-60
2022/07/29 09:56:15;;;;;;;5.68;1.95;;;;;;;26.95;31.90;101085.78;5027239;28;20063;-57
2022/07/29 09:58:42;;;;;;;4.85;2.17;;;;;;;27.06;31.75;101097.97;5037132;28;20059;-61
2022/07/29 10:01:09;;;;;;;6.05;2.08;;;;;;;26.99;31.85;101087.94;5034021;28;20064;-60
2022/07/29 10:03:52;;;;;;;7.38;1.95;;;;;;;27.16;31.75;101087.78;5037949;28;20055;-60
2022/07/29 10:06:19;;;;;;;5.85;1.63;;;;;;;27.40;31.14;101087.44;5028146;28;20053;-60
2022/07/29 10:08:46;;;;;;;3.58;1.75;;;;;;;27.59;31.40;101086.00;5029114;28;20098;-59
2022/07/29 10:11:17;;;;;;;6.82;2.05;;;;;;;27.98;30.37;101085.63;5035176;28;20068;-60
2022/07/29 10:13:46;;;;;;;7.65;1.95;;;;;;;28.00;29.81;101078.13;5024634;28;20054;-58
2022/07/29 10:16:14;;;;;;;7.65;2.00;;;;;;;28.10;28.98;101083.25;5035885;28;20080;-61
2022/07/29 10:18:43;;;;;;;3.30;1.55;;;;;;;28.13;28.96;101082.00;5032507;28;20072;-56
2022/07/29 10:21:10;;;;;;;8.07;1.63;;;;;;;28.32;28.79;101077.78;5038997;28;20162;-60
2022/07/29 10:23:58;;;;;;;6.22;1.80;;;;;;;28.72;27.82;101079.78;5025279;28;20050;-59
2022/07/29 10:26:29;;;;;;;4.40;1.58;;;;;;;28.92;27.93;101077.22;5039026;28;20089;-59
2022/07/29 10:28:56;;;;;;;2.50;1.17;;;;;;;29.19;27.56;101083.66;5032231;28;20045;-59
2022/07/29 10:31:31;;;;;;;5.03;1.45;;;;;;;29.43;26.09;101076.00;5031558;28;20551;-61
2022/07/29 10:34:10;;;;;;;4.70;1.92;;;;;;;29.37;26.09;101074.97;5036117;28;20380;-58
2022/07/29 10:36:53;;;;;;;3.83;1.70;;;;;;;29.34;26.47;101077.22;5027196;28;20060;-60
2022/07/29 10:41:26;;;;;;;3.30;1.38;;;;;;;29.26;27.15;101065.50;5041633;28;20064;-59
2022/07/29 10:42:55;;;;;;;4.13;1.48;;;;;;;29.55;26.52;101074.44;5016113;28;20055;-58
2022/07/29 10:45:22;;;;;;;3.72;1.63;;;;;;;29.49;26.15;101072.47;5029881;28;20482;-57
2022/07/29 10:48:03;;;;;;;6.07;1.50;;;;;;;29.36;26.83;101073.28;5027536;28;20053;-59
2022/07/29 10:50:54;;;;;;;3.10;1.65;;;;;;;29.51;26.22;101076.66;5031937;28;20055;-59
2022/07/29 10:53:23;;;;;;;3.28;1.67;;;;;;;29.66;26.13;101065.69;5025120;28;20054;-60
2022/07/29 10:55:52;;;;;;;3.90;1.83;;;;;;;29.97;26.34;101065.09;5030057;28;20045;-60
2022/07/29 10:58:23;;;;;;;6.70;2.00;;;;;;;30.29;26.25;101072.66;5036108;28;20063;-58
2022/07/29 11:00:52;;;;;;;5.65;1.60;;;;;;;30.45;25.41;101064.09;5029822;28;20049;-60
2022/07/29 11:03:46;;;;;;;2.20;1.52;;;;;;;30.60;25.24;101063.88;5038505;28;20128;-60
2022/07/29 11:06:15;;;;;;;5.78;1.88;;;;;;;30.57;25.48;101064.28;5032558;28;20041;-59
2022/07/29 11:08:44;;;;;;;3.75;1.70;;;;;;;30.51;25.09;101065.97;5036754;28;20068;-60
2022/07/29 11:11:18;;;;;;;3.30;1.65;;;;;;;30.29;25.37;101057.22;5034007;28;20049;-59
2022/07/29 11:13:50;;;;;;;5.65;1.52;;;;;;;30.09;25.67;101056.34;5037637;28;20057;-57
2022/07/29 11:16:21;;;;;;;5.35;2.15;;;;;;;29.77;26.19;101056.13;5035126;28;20056;-59
2022/07/29 11:19:13;;;;;;;7.30;2.05;;;;;;;29.56;26.77;101061.69;5024477;28;20162;-58
2022/07/29 11:21:49;;;;;;;7.47;1.80;;;;;;;29.51;26.85;101056.84;5036477;28;20082;-60
2022/07/29 11:24:30;;;;;;;5.63;1.85;;;;;;;29.37;26.87;101050.56;5036390;28;20049;-59
2022/07/29 11:27:19;;;;;;;5.90;1.52;;;;;;;29.05;27.34;101056.69;5033149;28;20045;-59
2022/07/29 11:29:57;;;;;;;4.78;2.08;;;;;;;28.93;27.40;101050.94;5033909;28;20054;-59
2022/07/29 11:32:25;;;;;;;4.15;1.77;;;;;;;29.18;27.48;101054.88;5038347;28;20490;-58
2022/07/29 11:35:23;;;;;;;5.03;1.85;;;;;;;29.42;27.43;101049.94;5029332;28;20140;-57
2022/07/29 11:38:27;;;;;;;3.65;1.92;;;;;;;29.76;27.49;101043.56;5025224;28;20085;-59
2022/07/29 11:41:17;;;;;;;4.57;1.50;;;;;;;29.81;26.73;101042.94;5032347;28;20060;-60
2022/07/29 11:43:51;;;;;;;2.58;1.85;;;;;;;29.76;26.36;101049.00;5034601;28;20053;-59
2022/07/29 11:46:46;;;;;;;4.22;1.80;;;;;;;29.82;27.03;101050.06;5032204;28;20049;-58